Boracay Island — 3ERW5 — position and weather

sailwx.info

Track history (hours):
 
Tides and Currents Weather Stations Pressure Air Temp Water Temp Dewpoint Dewpoint Depression Visibility Wind Speed Wind Dir Waves Ship Positions

Boracay Island

Last reported at 2017-Nov-10 13:18 UTC. Time now 2017-Nov-24 14:46 UTC.
Position N 37°30' W 123°13'.
Warning: this ship's position is 14 days out of date.

Length 180 m; draft 7.3 m.

Type: Cargo ship. MMSI: 374590000.

Date/timePositionNaut miles runAvg speedWind from/ knotsBaromVisibWave heightAir tempDewpointWater temp
2017-Nov-10 13:18N 37°30' W 123°13'3 9.8
2017-Nov-10 13:00N 37°31' W 123°09'510.0
2017-Nov-10 12:30N 37°34' W 123°04'510.0
2017-Nov-10 12:00N 37°37' W 122°59'5 9.9
2017-Nov-10 11:30N 37°39' W 122°54'510.1
2017-Nov-10 11:00N 37°43' W 122°49'5 9.8
2017-Nov-10 10:30N 37°45' W 122°43'5 9.9
2017-Nov-10 10:00N 37°46' W 122°37'612.0
2017-Nov-10 09:30N 37°49' W 122°30'611.2
2017-Nov-10 09:00N 37°52' W 122°25'713.1
2017-Nov-10 08:30N 37°59' W 122°26'714.1
2017-Nov-10 08:00N 38°03' W 122°19'814.5
2017-Nov-10 07:28N 38°02' W 122°09'711.4
2017-Nov-10 06:51N 38°04' W 122°00'412.6
2017-Nov-10 06:30N 38°03' W 121°55'  
2017-Nov-05 15:59N 38°03' W 121°52'8 9.9
2017-Nov-05 15:08N 38°04' W 122°03'210.7
2017-Nov-05 14:56N 38°03' W 122°05'4 7.8
2017-Nov-05 14:26N 38°02' W 122°10'511.3
2017-Nov-05 14:00N 38°04' W 122°16'612.3
2017-Nov-05 13:31N 38°01' W 122°23'611.7
2017-Nov-05 13:00N 37°56' W 122°27'612.8
2017-Nov-05 12:30N 37°50' W 122°24'4 8.1
2017-Nov-05 12:00N 37°49' W 122°29'510.1
2017-Nov-05 11:30N 37°47' W 122°35'510.7
2017-Nov-05 11:00N 37°44' W 122°41'4 8.9
2017-Nov-05 10:30N 37°39' W 122°40'4 8.8
2017-Nov-05 10:00N 37°35' W 122°40'4 8.8
2017-Nov-05 09:30N 37°30' W 122°40'4 8.9
2017-Nov-05 09:00N 37°26' W 122°40'4 8.9
2017-Nov-05 08:30N 37°21' W 122°40'4 8.9
2017-Nov-05 08:00N 37°17' W 122°40'3 5.6
2017-Nov-05 07:30N 37°14' W 122°40'3 5.4
2017-Nov-05 07:00N 37°11' W 122°40'4 8.0
2017-Nov-05 06:30N 37°07' W 122°40'4 7.6
2017-Nov-05 06:00N 37°04' W 122°40'5 7.9
2017-Nov-05 05:22N 36°59' W 122°40'21 5.8
2017-Nov-05 01:51N 36°38' W 122°40'2 4.4
2017-Nov-05 01:30N 36°37' W 122°39'2 4.2
2017-Nov-05 01:00N 36°35' W 122°38'4 8.5
2017-Nov-05 00:30N 36°31' W 122°37'510.7
2017-Nov-05 00:00N 36°25' W 122°35'611.2
2017-Nov-04 23:30N 36°20' W 122°33'611.4
2017-Nov-04 23:00N 36°14' W 122°31'611.1
2017-Nov-04 22:30N 36°09' W 122°30'611.0
2017-Nov-04 22:00N 36°04' W 122°28'611.4
2017-Nov-04 21:30N 35°58' W 122°26'4 7.1
2017-Nov-04 21:00N 35°55' W 122°25'610.9
2017-Nov-04 20:30N 35°50' W 122°23'611.4
2017-Nov-04 20:00N 35°44' W 122°21'611.5
2017-Nov-04 19:30N 35°39' W 122°19'611.6
2017-Nov-04 19:00N 35°33' W 122°17'4112.1
2017-Nov-04 15:36N 34°53' W 122°04'112.6
2017-Nov-04 15:30N 34°52' W 122°03'612.7
2017-Nov-04 15:00N 34°46' W 122°01'612.8
2017-Nov-04 14:31N 34°40' W 121°59'713.2
2017-Nov-04 14:00N 34°34' W 121°57'713.4
2017-Nov-04 13:30N 34°27' W 121°55'913.4
2017-Nov-04 12:49N 34°18' W 121°52'413.8
2017-Nov-04 12:30N 34°14' W 121°51'713.7
2017-Nov-04 12:00N 34°07' W 121°48'713.5
2017-Nov-04 11:27N 34°00' W 121°46'613.7
2017-Nov-04 11:00N 33°54' W 121°44'713.7
2017-Nov-04 10:30N 33°48' W 121°42'1113.6
2017-Nov-04 09:39N 33°37' W 121°38'413.5
2017-Nov-04 09:21N 33°33' W 121°37'613.2
2017-Nov-04 08:55N 33°27' W 121°35'512.9
2017-Nov-04 08:30N 33°22' W 121°32'612.9
2017-Nov-04 08:00N 33°17' W 121°28'713.2
2017-Nov-04 07:30N 33°11' W 121°25'713.4
2017-Nov-04 06:59N 33°05' W 121°21'2113.1
2017-Nov-04 05:24N 32°47' W 121°08'512.9
2017-Nov-04 04:59N 32°43' W 121°04'612.9
2017-Nov-04 04:30N 32°38' W 120°59'713.1
2017-Nov-04 04:00N 32°33' W 120°55'1413.3
2017-Nov-04 02:56N 32°22' W 120°45'613.3
2017-Nov-04 02:30N 32°17' W 120°40'  
Track history (hours):
 
Tides and Currents Weather Stations Pressure Air Temp Water Temp Dewpoint Dewpoint Depression Visibility Wind Speed Wind Dir Waves Ship Positions

Boracay Island

Last reported at 2017-Nov-10 13:18 UTC. Time now 2017-Nov-24 14:46 UTC.
Position N 37°30' W 123°13'.
Warning: this ship's position is 14 days out of date.

Length 180 m; draft 7.3 m.

Type: Cargo ship. MMSI: 374590000.

Date/timePositionNaut miles runAvg speedWind from/ knotsBaromVisibWave heightAir tempDewpointWater temp
2017-Nov-10 13:18N 37°30' W 123°13'3 9.8
2017-Nov-10 13:00N 37°31' W 123°09'510.0
2017-Nov-10 12:30N 37°34' W 123°04'510.0
2017-Nov-10 12:00N 37°37' W 122°59'5 9.9
2017-Nov-10 11:30N 37°39' W 122°54'510.1
2017-Nov-10 11:00N 37°43' W 122°49'5 9.8
2017-Nov-10 10:30N 37°45' W 122°43'5 9.9
2017-Nov-10 10:00N 37°46' W 122°37'612.0
2017-Nov-10 09:30N 37°49' W 122°30'611.2
2017-Nov-10 09:00N 37°52' W 122°25'713.1
2017-Nov-10 08:30N 37°59' W 122°26'714.1
2017-Nov-10 08:00N 38°03' W 122°19'814.5
2017-Nov-10 07:28N 38°02' W 122°09'711.4
2017-Nov-10 06:51N 38°04' W 122°00'412.6
2017-Nov-10 06:30N 38°03' W 121°55'  
2017-Nov-05 15:59N 38°03' W 121°52'8 9.9
2017-Nov-05 15:08N 38°04' W 122°03'210.7
2017-Nov-05 14:56N 38°03' W 122°05'4 7.8
2017-Nov-05 14:26N 38°02' W 122°10'511.3
2017-Nov-05 14:00N 38°04' W 122°16'612.3
2017-Nov-05 13:31N 38°01' W 122°23'611.7
2017-Nov-05 13:00N 37°56' W 122°27'612.8
2017-Nov-05 12:30N 37°50' W 122°24'4 8.1
2017-Nov-05 12:00N 37°49' W 122°29'510.1
2017-Nov-05 11:30N 37°47' W 122°35'510.7
2017-Nov-05 11:00N 37°44' W 122°41'4 8.9
2017-Nov-05 10:30N 37°39' W 122°40'4 8.8
2017-Nov-05 10:00N 37°35' W 122°40'4 8.8
2017-Nov-05 09:30N 37°30' W 122°40'4 8.9
2017-Nov-05 09:00N 37°26' W 122°40'4 8.9
2017-Nov-05 08:30N 37°21' W 122°40'4 8.9
2017-Nov-05 08:00N 37°17' W 122°40'3 5.6
2017-Nov-05 07:30N 37°14' W 122°40'3 5.4
2017-Nov-05 07:00N 37°11' W 122°40'4 8.0
2017-Nov-05 06:30N 37°07' W 122°40'4 7.6
2017-Nov-05 06:00N 37°04' W 122°40'5 7.9
2017-Nov-05 05:22N 36°59' W 122°40'21 5.8
2017-Nov-05 01:51N 36°38' W 122°40'2 4.4
2017-Nov-05 01:30N 36°37' W 122°39'2 4.2
2017-Nov-05 01:00N 36°35' W 122°38'4 8.5
2017-Nov-05 00:30N 36°31' W 122°37'510.7
2017-Nov-05 00:00N 36°25' W 122°35'611.2
2017-Nov-04 23:30N 36°20' W 122°33'611.4
2017-Nov-04 23:00N 36°14' W 122°31'611.1
2017-Nov-04 22:30N 36°09' W 122°30'611.0
2017-Nov-04 22:00N 36°04' W 122°28'611.4
2017-Nov-04 21:30N 35°58' W 122°26'4 7.1
2017-Nov-04 21:00N 35°55' W 122°25'610.9
2017-Nov-04 20:30N 35°50' W 122°23'611.4
2017-Nov-04 20:00N 35°44' W 122°21'611.5
2017-Nov-04 19:30N 35°39' W 122°19'611.6
2017-Nov-04 19:00N 35°33' W 122°17'4112.1
2017-Nov-04 15:36N 34°53' W 122°04'112.6
2017-Nov-04 15:30N 34°52' W 122°03'612.7
2017-Nov-04 15:00N 34°46' W 122°01'612.8
2017-Nov-04 14:31N 34°40' W 121°59'713.2
2017-Nov-04 14:00N 34°34' W 121°57'713.4
2017-Nov-04 13:30N 34°27' W 121°55'913.4
2017-Nov-04 12:49N 34°18' W 121°52'413.8
2017-Nov-04 12:30N 34°14' W 121°51'713.7
2017-Nov-04 12:00N 34°07' W 121°48'713.5
2017-Nov-04 11:27N 34°00' W 121°46'613.7
2017-Nov-04 11:00N 33°54' W 121°44'713.7
2017-Nov-04 10:30N 33°48' W 121°42'1113.6
2017-Nov-04 09:39N 33°37' W 121°38'413.5
2017-Nov-04 09:21N 33°33' W 121°37'613.2
2017-Nov-04 08:55N 33°27' W 121°35'512.9
2017-Nov-04 08:30N 33°22' W 121°32'612.9
2017-Nov-04 08:00N 33°17' W 121°28'713.2
2017-Nov-04 07:30N 33°11' W 121°25'713.4
2017-Nov-04 06:59N 33°05' W 121°21'2113.1
2017-Nov-04 05:24N 32°47' W 121°08'512.9
2017-Nov-04 04:59N 32°43' W 121°04'612.9
2017-Nov-04 04:30N 32°38' W 120°59'713.1
2017-Nov-04 04:00N 32°33' W 120°55'1413.3
2017-Nov-04 02:56N 32°22' W 120°45'613.3
2017-Nov-04 02:30N 32°17' W 120°40'  

Dump ship's entire track history